createdAt,value
2022-09-26T00:00:05.797Z,100529.56
2022-09-26T00:07:21.811Z,100524.22
2022-09-26T00:10:51.436Z,100518.31
2022-09-26T00:14:02.678Z,100513.06
2022-09-26T00:20:31.871Z,100507.22
2022-09-26T00:49:33.517Z,100465.84
2022-09-26T01:15:16.427Z,100447.66
2022-09-26T01:30:07.764Z,100430.22
2022-09-26T02:35:58.985Z,100355.50
2022-09-26T02:51:29.265Z,100352.09
2022-09-26T02:54:51.687Z,100341.91
2022-09-26T02:57:41.380Z,100338.97
2022-09-26T03:01:09.470Z,100334.97
2022-09-26T03:08:41.420Z,100325.41
2022-09-26T03:12:48.210Z,100314.84
2022-09-26T03:19:32.180Z,100310.97
2022-09-26T03:23:23.164Z,100306.97
2022-09-26T03:27:09.914Z,100295.16
2022-09-26T03:29:39.618Z,100302.13
2022-09-26T03:32:36.700Z,100296.28
2022-09-26T03:35:27.425Z,100289.97
2022-09-26T03:38:30.235Z,100285.31
2022-09-26T03:44:53.931Z,100269.06
2022-09-26T03:50:39.074Z,100259.09
2022-09-26T03:54:07.419Z,100249.84
2022-09-26T03:57:40.494Z,100239.63
2022-09-26T04:00:19.765Z,100236.22
2022-09-26T04:03:10.724Z,100235.63
2022-09-26T04:09:00.478Z,100230.38
2022-09-26T04:12:29.760Z,100225.31
2022-09-26T04:14:49.871Z,100213.63
2022-09-26T04:21:09.969Z,100209.97
2022-09-26T04:24:39.350Z,100210.94
2022-09-26T04:42:10.683Z,100191.38
2022-09-26T04:44:53.653Z,100187.38
2022-09-26T04:47:36.143Z,100183.00
2022-09-26T04:50:05.003Z,100181.16
2022-09-26T04:52:33.886Z,100175.13
2022-09-26T04:55:02.339Z,100186.63
2022-09-26T04:57:36.411Z,100174.13
2022-09-26T05:00:10.032Z,100172.44
2022-09-26T05:02:38.682Z,100172.69
2022-09-26T05:05:08.940Z,100168.66
2022-09-26T05:07:41.497Z,100165.25
2022-09-26T05:10:11.828Z,100164.78
2022-09-26T05:12:42.092Z,100162.25
2022-09-26T05:15:12.289Z,100159.19
2022-09-26T05:17:45.346Z,100157.13
2022-09-26T05:20:14.595Z,100153.25
2022-09-26T05:22:45.581Z,100145.81
2022-09-26T05:25:35.627Z,100147.25
2022-09-26T05:28:05.670Z,100138.03
2022-09-26T05:30:36.006Z,100131.00
2022-09-26T05:33:04.849Z,100123.66
2022-09-26T05:35:35.156Z,100123.22
2022-09-26T05:38:06.291Z,100130.84
2022-09-26T05:40:52.360Z,100124.25
2022-09-26T05:43:22.873Z,100123.03
2022-09-26T05:45:51.580Z,100121.81
2022-09-26T05:48:21.088Z,100124.09
2022-09-26T05:50:49.450Z,100123.72
2022-09-26T05:53:20.717Z,100124.56
2022-09-26T05:57:25.249Z,100114.69
2022-09-26T05:59:53.708Z,100118.94
2022-09-26T06:02:22.791Z,100126.94
2022-09-26T06:04:51.677Z,100121.56
2022-09-26T06:07:22.298Z,100122.22
2022-09-26T06:09:51.494Z,100115.84
2022-09-26T06:12:20.605Z,100115.06
2022-09-26T06:14:50.582Z,100109.19
2022-09-26T06:17:19.346Z,100116.25
2022-09-26T06:19:48.189Z,100112.19
2022-09-26T06:22:16.415Z,100105.69
2022-09-26T06:24:44.923Z,100100.03
2022-09-26T06:27:13.536Z,100095.97
2022-09-26T06:29:41.835Z,100095.31
2022-09-26T06:32:11.532Z,100093.47
2022-09-26T06:34:40.741Z,100087.53
2022-09-26T06:37:09.301Z,100088.56
2022-09-26T06:39:37.703Z,100077.31
2022-09-26T06:42:07.581Z,100073.84
2022-09-26T06:44:37.258Z,100063.75
2022-09-26T06:47:05.912Z,100068.63
2022-09-26T06:49:38.509Z,100067.84
2022-09-26T06:52:07.156Z,100067.66
2022-09-26T06:54:35.902Z,100058.22
2022-09-26T06:57:04.068Z,100050.13
2022-09-26T06:59:32.675Z,100028.41
2022-09-26T07:02:03.328Z,100007.50
2022-09-26T07:04:31.769Z,99988.81
2022-09-26T07:07:01.582Z,99957.91
2022-09-26T07:09:30.287Z,99945.06
2022-09-26T07:12:15.799Z,99912.84
2022-09-26T07:14:47.115Z,99897.56
2022-09-26T07:17:19.373Z,99899.38
2022-09-26T07:19:53.167Z,99886.88
2022-09-26T07:22:23.438Z,99877.19
2022-09-26T07:24:52.071Z,99872.59
2022-09-26T07:27:22.352Z,99877.59
2022-09-26T07:29:53.810Z,99866.88
2022-09-26T07:32:25.671Z,99872.19
2022-09-26T07:34:54.541Z,99868.63
2022-09-26T07:37:25.145Z,99873.75
2022-09-26T07:40:01.301Z,99881.03
2022-09-26T07:42:30.089Z,99878.59
2022-09-26T07:48:07.693Z,99875.88
2022-09-26T07:50:36.287Z,99880.13
2022-09-26T07:53:06.269Z,99868.16
2022-09-26T07:55:55.025Z,99877.09
2022-09-26T07:58:26.109Z,99864.75
2022-09-26T08:00:54.546Z,99873.72
2022-09-26T08:03:26.401Z,99871.50
2022-09-26T08:08:07.294Z,99863.38
2022-09-26T08:10:36.024Z,99869.44
2022-09-26T08:13:04.340Z,99865.44
2022-09-26T08:15:35.233Z,99876.22
2022-09-26T08:18:04.823Z,99860.00
2022-09-26T08:20:34.426Z,99866.75
2022-09-26T08:23:02.931Z,99862.91
2022-09-26T08:25:35.543Z,99856.22
2022-09-26T08:28:12.580Z,99851.56
2022-09-26T08:30:40.984Z,99854.97
2022-09-26T08:33:12.720Z,99860.84
2022-09-26T08:35:41.197Z,99874.88
2022-09-26T08:38:15.766Z,99860.84
2022-09-26T08:40:54.674Z,99860.50
2022-09-26T08:43:40.082Z,99859.38
2022-09-26T08:46:45.370Z,99856.75
2022-09-26T08:49:41.851Z,99855.56
2022-09-26T08:52:23.930Z,99851.88
2022-09-26T08:54:54.782Z,99852.59
2022-09-26T08:57:34.894Z,99855.84
2022-09-26T09:00:11.943Z,99843.75
2022-09-26T09:02:49.115Z,99851.56
2022-09-26T09:05:23.871Z,99847.38
2022-09-26T09:07:58.698Z,99837.41
2022-09-26T09:10:45.381Z,99821.91
2022-09-26T09:13:32.446Z,99829.69
2022-09-26T09:16:23.263Z,99819.38
2022-09-26T09:19:00.093Z,99818.28
2022-09-26T09:21:42.196Z,99818.25
2022-09-26T09:24:19.495Z,99811.28
2022-09-26T09:31:55.296Z,99802.34
2022-09-26T09:34:29.846Z,99812.94
2022-09-26T09:37:01.077Z,99812.50
2022-09-26T09:39:55.476Z,99811.81
2022-09-26T09:42:29.415Z,99801.00
2022-09-26T09:46:36.293Z,99801.91
2022-09-26T09:49:21.376Z,99797.78
2022-09-26T09:52:02.989Z,99789.47
2022-09-26T09:54:53.420Z,99779.69
2022-09-26T09:57:44.603Z,99778.28
2022-09-26T10:00:20.237Z,99769.50
2022-09-26T10:03:02.430Z,99767.03
2022-09-26T10:05:39.222Z,99758.06
2022-09-26T10:08:13.854Z,99760.16
2022-09-26T10:10:51.365Z,99765.22
2022-09-26T10:13:22.515Z,99764.22
2022-09-26T10:15:58.307Z,99753.69
2022-09-26T10:18:28.910Z,99748.06
2022-09-26T10:21:00.297Z,99738.66
2022-09-26T10:23:34.018Z,99740.75
2022-09-26T10:26:05.355Z,99732.97
2022-09-26T10:28:37.914Z,99739.47
2022-09-26T10:31:12.108Z,99723.94
2022-09-26T10:33:46.362Z,99719.78
2022-09-26T10:36:21.216Z,99727.34
2022-09-26T10:39:10.636Z,99722.09
2022-09-26T10:41:45.385Z,99724.41
2022-09-26T10:44:24.503Z,99712.88
2022-09-26T10:46:58.372Z,99715.59
2022-09-26T10:49:37.015Z,99704.91
2022-09-26T10:52:18.184Z,99703.13
2022-09-26T10:54:57.367Z,99702.63
2022-09-26T10:57:30.753Z,99708.28
2022-09-26T11:00:01.209Z,99703.31
2022-09-26T11:02:30.121Z,99694.69
2022-09-26T11:05:19.631Z,99692.22
2022-09-26T11:07:49.662Z,99684.88
2022-09-26T11:10:25.720Z,99672.06
2022-09-26T11:13:04.088Z,99676.47
2022-09-26T11:15:33.325Z,99678.38
2022-09-26T11:18:02.102Z,99668.28
2022-09-26T11:20:46.508Z,99659.03
2022-09-26T11:23:29.893Z,99666.78
2022-09-26T11:26:07.292Z,99674.97
2022-09-26T11:28:42.618Z,99660.25
2022-09-26T11:31:25.261Z,99664.03
2022-09-26T11:33:55.347Z,99652.34
2022-09-26T11:36:45.361Z,99657.22
2022-09-26T11:39:30.405Z,99643.00
2022-09-26T11:42:13.783Z,99648.28
2022-09-26T11:44:58.034Z,99643.53
2022-09-26T11:47:41.806Z,99637.69
2022-09-26T11:50:29.010Z,99635.84
2022-09-26T11:53:15.270Z,99629.75
2022-09-26T11:55:58.577Z,99632.91
2022-09-26T11:58:41.647Z,99607.50
2022-09-26T12:01:22.651Z,99625.56
2022-09-26T12:04:17.219Z,99618.84
2022-09-26T12:06:55.527Z,99620.09
2022-09-26T12:09:47.520Z,99605.41
2022-09-26T12:12:24.671Z,99602.84
2022-09-26T12:15:15.187Z,99599.03
2022-09-26T12:17:59.707Z,99614.31
2022-09-26T12:20:35.787Z,99600.03
2022-09-26T12:23:15.119Z,99595.63
2022-09-26T12:25:57.088Z,99595.63
2022-09-26T12:28:45.316Z,99588.53
2022-09-26T12:31:21.107Z,99593.34
2022-09-26T12:34:11.401Z,99587.91
2022-09-26T12:36:56.435Z,99592.53
2022-09-26T12:39:58.592Z,99586.66
2022-09-26T12:42:48.873Z,99581.66
2022-09-26T12:45:42.427Z,99569.88
2022-09-26T12:48:29.752Z,99567.38
2022-09-26T12:51:15.532Z,99566.78
2022-09-26T12:54:33.293Z,99560.06
2022-09-26T12:57:11.556Z,99551.28
2022-09-26T12:59:59.584Z,99551.50
2022-09-26T13:02:55.888Z,99557.78
2022-09-26T13:05:39.478Z,99547.94
2022-09-26T13:08:17.020Z,99554.44
2022-09-26T13:11:01.729Z,99555.50
2022-09-26T13:13:54.580Z,99547.31
2022-09-26T13:16:34.202Z,99557.38
2022-09-26T13:19:12.525Z,99543.97
2022-09-26T13:21:47.650Z,99556.53
2022-09-26T13:24:22.237Z,99565.81
2022-09-26T13:26:55.395Z,99557.00
2022-09-26T13:29:29.983Z,99550.69
2022-09-26T13:32:21.635Z,99558.88
2022-09-26T13:34:55.869Z,99546.50
2022-09-26T13:37:36.580Z,99550.31
2022-09-26T13:40:21.364Z,99554.09
2022-09-26T13:43:00.731Z,99553.47
2022-09-26T13:45:41.293Z,99545.75
2022-09-26T13:48:21.060Z,99542.38
2022-09-26T13:50:56.071Z,99542.38
2022-09-26T13:53:29.752Z,99542.78
2022-09-26T13:56:30.674Z,99533.16
2022-09-26T13:59:26.047Z,99528.97
2022-09-26T14:02:23.518Z,99530.25
2022-09-26T14:04:54.488Z,99527.75
2022-09-26T14:07:44.847Z,99519.78
2022-09-26T14:10:39.999Z,99530.88
2022-09-26T14:13:22.014Z,99515.63
2022-09-26T14:15:59.695Z,99526.53
2022-09-26T14:18:54.594Z,99522.13
2022-09-26T14:21:39.536Z,99523.16
2022-09-26T14:24:31.913Z,99513.94
2022-09-26T14:27:39.567Z,99524.00
2022-09-26T14:30:28.619Z,99522.13
2022-09-26T14:33:02.328Z,99521.47
2022-09-26T14:35:33.245Z,99512.69
2022-09-26T14:38:05.858Z,99509.94
2022-09-26T14:40:36.161Z,99503.91
2022-09-26T14:43:13.350Z,99506.63
2022-09-26T14:45:51.374Z,99496.78
2022-09-26T14:48:33.443Z,99493.00
2022-09-26T14:51:05.543Z,99496.78
2022-09-26T14:53:40.208Z,99489.63
2022-09-26T14:56:13.331Z,99495.09
2022-09-26T14:58:51.513Z,99496.16
2022-09-26T15:01:27.915Z,99497.19
2022-09-26T15:03:59.343Z,99483.81
2022-09-26T15:06:30.225Z,99484.00
2022-09-26T15:09:00.430Z,99484.00
2022-09-26T15:11:39.196Z,99478.78
2022-09-26T15:14:20.919Z,99483.38
2022-09-26T15:16:57.663Z,99481.72
2022-09-26T15:19:32.796Z,99467.47
2022-09-26T15:22:04.280Z,99469.13
2022-09-26T15:24:35.517Z,99467.69
2022-09-26T15:27:12.122Z,99472.31
2022-09-26T15:29:47.010Z,99474.19
2022-09-26T15:32:20.428Z,99465.19
2022-09-26T15:34:49.428Z,99470.63
2022-09-26T15:37:23.175Z,99475.03
2022-09-26T15:39:53.196Z,99467.06
2022-09-26T15:42:44.918Z,99477.13
2022-09-26T15:45:27.668Z,99466.47
2022-09-26T15:47:57.449Z,99468.34
2022-09-26T15:50:36.277Z,99469.41
2022-09-26T15:53:11.619Z,99462.28
2022-09-26T15:55:51.610Z,99458.50
2022-09-26T15:58:25.744Z,99459.56
2022-09-26T16:00:55.212Z,99446.97
2022-09-26T16:03:40.061Z,99459.75
2022-09-26T16:06:24.121Z,99449.91
2022-09-26T16:08:55.473Z,99450.75
2022-09-26T16:11:26.122Z,99446.34
2022-09-26T16:13:56.762Z,99442.81
2022-09-26T16:16:32.396Z,99437.56
2022-09-26T16:19:03.410Z,99436.72
2022-09-26T16:21:34.311Z,99438.63
2022-09-26T16:24:22.767Z,99431.50
2022-09-26T16:26:53.655Z,99429.81
2022-09-26T16:29:33.149Z,99429.81
2022-09-26T16:32:02.509Z,99433.59
2022-09-26T16:34:31.879Z,99417.25
2022-09-26T16:37:00.498Z,99421.03
2022-09-26T16:39:31.454Z,99422.09
2022-09-26T16:42:05.888Z,99422.94
2022-09-26T16:44:37.500Z,99414.75
2022-09-26T16:47:09.368Z,99413.91
2022-09-26T16:49:45.895Z,99411.41
2022-09-26T16:52:32.153Z,99406.78
2022-09-26T16:55:02.568Z,99408.88
2022-09-26T16:57:35.806Z,99406.16
2022-09-26T17:00:26.722Z,99402.59
2022-09-26T17:02:55.402Z,99413.50
2022-09-26T17:05:23.777Z,99407.22
2022-09-26T17:07:53.857Z,99416.47
2022-09-26T17:10:26.012Z,99405.56
2022-09-26T17:12:56.484Z,99400.13
2022-09-26T17:15:29.003Z,99400.94
2022-09-26T17:17:58.465Z,99398.44
2022-09-26T17:20:27.055Z,99393.81
2022-09-26T17:22:55.889Z,99397.59
2022-09-26T17:25:25.573Z,99398.44
2022-09-26T17:27:59.744Z,99396.78
2022-09-26T17:30:28.285Z,99392.16
2022-09-26T17:32:59.035Z,99393.41
2022-09-26T17:35:33.471Z,99382.50
2022-09-26T17:38:02.471Z,99385.25
2022-09-26T17:40:32.790Z,99380.84
2022-09-26T17:43:05.709Z,99372.66
2022-09-26T17:45:38.460Z,99380.00
2022-09-26T17:48:13.856Z,99378.13
2022-09-26T17:50:42.916Z,99380.00
2022-09-26T17:53:20.674Z,99372.06
2022-09-26T17:55:49.462Z,99363.66
2022-09-26T17:58:19.897Z,99361.75
2022-09-26T18:00:51.350Z,99363.44
2022-09-26T18:03:25.122Z,99350.66
2022-09-26T18:05:54.383Z,99362.19
2022-09-26T18:08:25.865Z,99349.41
2022-09-26T18:10:56.990Z,99346.44
2022-09-26T18:13:31.584Z,99351.06
2022-09-26T18:16:00.371Z,99341.81
2022-09-26T18:18:31.420Z,99341.59
2022-09-26T18:21:04.035Z,99354.38
2022-09-26T18:23:42.547Z,99356.06
2022-09-26T18:26:20.372Z,99344.13
2022-09-26T18:28:50.922Z,99349.56
2022-09-26T18:31:22.675Z,99342.22
2022-09-26T18:33:51.241Z,99343.06
2022-09-26T18:36:19.921Z,99340.34
2022-09-26T18:38:48.182Z,99344.75
2022-09-26T18:41:25.131Z,99339.28
2022-09-26T18:44:01.157Z,99345.78
2022-09-26T18:46:30.939Z,99343.06
2022-09-26T18:49:06.746Z,99338.44
2022-09-26T18:51:35.291Z,99337.63
2022-09-26T18:54:11.298Z,99329.22
2022-09-26T18:56:57.628Z,99327.53
2022-09-26T18:59:31.367Z,99325.66
2022-09-26T19:02:02.894Z,99324.56
2022-09-26T19:04:31.948Z,99327.31
2022-09-26T19:07:02.684Z,99317.25
2022-09-26T19:09:34.582Z,99319.97
2022-09-26T19:12:04.663Z,99320.81
2022-09-26T19:14:35.644Z,99307.19
2022-09-26T19:17:04.765Z,99307.19
2022-09-26T19:19:33.620Z,99317.03
2022-09-26T19:22:08.288Z,99305.50
2022-09-26T19:24:39.533Z,99297.31
2022-09-26T19:27:13.682Z,99301.72
2022-09-26T19:29:46.620Z,99295.44
2022-09-26T19:32:21.025Z,99291.88
2022-09-26T19:34:53.804Z,99291.06
2022-09-26T19:37:24.279Z,99286.44
2022-09-26T19:39:52.912Z,99289.41
2022-09-26T19:42:21.408Z,99280.97
2022-09-26T19:44:51.423Z,99284.78
2022-09-26T19:47:22.840Z,99283.09
2022-09-26T19:49:53.239Z,99277.66
2022-09-26T19:52:23.202Z,99280.38
2022-09-26T19:54:52.280Z,99270.31
2022-09-26T19:57:23.241Z,99269.47
2022-09-26T19:59:53.163Z,99266.75
2022-09-26T20:02:25.636Z,99265.09
2022-09-26T20:04:54.077Z,99272.22
2022-09-26T20:07:22.761Z,99265.09
2022-09-26T20:09:51.566Z,99260.47
2022-09-26T20:12:20.887Z,99265.09
2022-09-26T20:14:49.358Z,99260.69
2022-09-26T20:17:24.671Z,99259.84
2022-09-26T20:19:58.598Z,99260.69
2022-09-26T20:22:27.902Z,99251.47
2022-09-26T20:24:57.138Z,99253.34
2022-09-26T20:27:28.019Z,99248.72
2022-09-26T20:30:14.884Z,99247.06
2022-09-26T20:32:44.972Z,99245.16
2022-09-26T20:35:16.579Z,99252.50
2022-09-26T20:37:46.104Z,99254.41
2022-09-26T20:40:18.359Z,99247.06
2022-09-26T20:42:50.176Z,99249.78
2022-09-26T20:45:21.702Z,99254.19
2022-09-26T20:47:51.681Z,99252.50
2022-09-26T20:50:21.618Z,99248.09
2022-09-26T20:52:49.921Z,99236.38
2022-09-26T20:55:19.796Z,99238.03
2022-09-26T20:57:48.195Z,99244.34
2022-09-26T21:00:17.880Z,99240.78
2022-09-26T21:02:48.012Z,99236.38
2022-09-26T21:05:20.187Z,99248.09
2022-09-26T21:07:48.882Z,99235.53
